Terminal Aerodrome Forecast
Issued by NWS Binghamton, NY

Home | Current Version | Previous Version | Text Only | Print | Product List | Glossary On
Versions: 1 2 3 4 5 6 7 8 9 10 11 12 13 14 15 16 17 18
379
FTUS41 KBGM 091338 AAA
TAFSYR
TAF AMD
KSYR 091338Z 0914/1012 08008KT 2SM -SN BR BKN025 OVC035
     FM091700 VRB03KT P6SM OVC025
      TEMPO 0920/0924 1 1/2SM -SN SCT008 OVC015
     FM100000 VRB03KT 1 1/2SM -SN OVC012
     FM100200 09003KT P6SM BKN050=

USA.gov is the U.S. government's official web portal to all federal, state and local government web resources and services.